Time;durP1;ratioP1;P1;durP2;ratioP2;P2;SDS_P1;SDS_P2;PMS_P1;PMS_P2;Temp;Humidity;BMP_temperature;BMP_pressure;BME280_temperature;BME280_humidity;BME280_pressure;Samples;Min_cycle;Max_cycle;Signal;HPM_P1;HPM_P2
2022/11/18 00:01:11;;;;;;;1.40;1.40;;;;;;;;;;5106201;27;43935;-58
2022/11/18 00:03:39;;;;;;;1.60;1.50;;;;;;;;;;5090511;27;43490;-58
2022/11/18 00:06:10;;;;;;;1.63;1.60;;;;;;;;;;5107174;27;43441;-58
2022/11/18 00:08:38;;;;;;;1.45;1.40;;;;;;;;;;5106041;27;43969;-58
2022/11/18 00:11:07;;;;;;;1.88;1.77;;;;;;;;;;5090615;27;43386;-58
2022/11/18 00:16:22;;;;;;;1.60;1.55;;;;;;;;;;5103450;27;43514;-58
2022/11/18 00:18:49;;;;;;;1.63;1.60;;;;;;;;;;5089947;27;44230;-58
2022/11/18 00:21:17;;;;;;;1.60;1.50;;;;;;;;;;5109359;27;43986;-58
2022/11/18 00:23:48;;;;;;;1.50;1.50;;;;;;;;;;5107299;27;43501;-58
2022/11/18 00:26:15;;;;;;;1.98;1.88;;;;;;;;;;5106209;27;43362;-58
2022/11/18 00:28:43;;;;;;;1.85;1.75;;;;;;;;;;5104416;27;44647;-59
2022/11/18 00:31:12;;;;;;;1.60;1.50;;;;;;;;;;5105038;27;43420;-59
2022/11/18 00:33:40;;;;;;;1.58;1.58;;;;;;;;;;5106012;27;43381;-58
2022/11/18 00:36:10;;;;;;;1.70;1.60;;;;;;;;;;5105679;27;43437;-58
2022/11/18 00:38:38;;;;;;;1.77;1.67;;;;;;;;;;5105503;27;44070;-58
2022/11/18 00:41:08;;;;;;;1.92;1.83;;;;;;;;;;5109262;27;43429;-58
2022/11/18 00:43:36;;;;;;;1.80;1.70;;;;;;;;;;5106260;27;43452;-58
2022/11/18 00:46:04;;;;;;;2.00;1.90;;;;;;;;;;5104611;27;43717;-58
2022/11/18 00:48:32;;;;;;;1.92;1.83;;;;;;;;;;5089839;27;44986;-58
2022/11/18 00:51:07;;;;;;;1.73;1.63;;;;;;;;;;5109920;27;43523;-58
2022/11/18 00:53:35;;;;;;;2.10;2.00;;;;;;;;;;5103458;27;43367;-58
2022/11/18 00:56:03;;;;;;;1.90;1.73;;;;;;;;;;5099492;27;43431;-58
2022/11/18 00:58:31;;;;;;;2.00;1.90;;;;;;;;;;5107553;27;43811;-58
2022/11/18 01:00:58;;;;;;;1.90;1.80;;;;;;;;;;5105272;27;43465;-58
2022/11/18 01:03:27;;;;;;;2.00;1.90;;;;;;;;;;5105473;27;43516;-58
2022/11/18 01:05:55;;;;;;;1.90;1.80;;;;;;;;;;5104070;27;43465;-58
2022/11/18 01:08:23;;;;;;;1.90;1.80;;;;;;;;;;5105042;27;43862;-58
2022/11/18 01:10:51;;;;;;;1.70;1.60;;;;;;;;;;5106167;27;44003;-58
2022/11/18 01:13:20;;;;;;;1.90;1.80;;;;;;;;;;5101961;27;43441;-58
2022/11/18 01:15:57;;;;;;;1.98;1.88;;;;;;;;;;5105114;27;43422;-58
2022/11/18 01:18:26;;;;;;;1.83;1.73;;;;;;;;;;5105302;27;43781;-58
2022/11/18 01:20:59;;;;;;;1.95;1.85;;;;;;;;;;5105048;27;43394;-58
2022/11/18 01:23:28;;;;;;;2.20;2.00;;;;;;;;;;5105104;27;43915;-57
2022/11/18 01:25:56;;;;;;;2.10;2.00;;;;;;;;;;5089412;27;43541;-59
2022/11/18 01:28:23;;;;;;;1.88;1.77;;;;;;;;;;5104854;27;44075;-58
2022/11/18 01:30:51;;;;;;;2.30;2.10;;;;;;;;;;5104973;27;43763;-59
2022/11/18 01:33:19;;;;;;;2.00;1.90;;;;;;;;;;5098288;27;43446;-58
2022/11/18 01:35:47;;;;;;;2.50;2.30;;;;;;;;;;5104679;27;43454;-58
2022/11/18 01:38:15;;;;;;;1.98;1.88;;;;;;;;;;5104878;27;44349;-58
2022/11/18 01:40:43;;;;;;;2.38;2.28;;;;;;;;;;5103499;27;43682;-58
2022/11/18 01:43:14;;;;;;;2.00;1.90;;;;;;;;;;5104223;27;43402;-58
2022/11/18 01:45:43;;;;;;;2.30;2.10;;;;;;;;;;5085234;27;43534;-58
2022/11/18 01:48:15;;;;;;;2.20;2.10;;;;;;;;;;5103838;27;43938;-58
2022/11/18 01:50:44;;;;;;;2.20;2.10;;;;;;;;;;5101683;27;43488;-58
2022/11/18 01:53:14;;;;;;;2.28;2.17;;;;;;;;;;5104639;27;43382;-58
2022/11/18 01:55:45;;;;;;;2.05;1.95;;;;;;;;;;5103961;27;43487;-58
2022/11/18 01:58:18;;;;;;;2.20;2.10;;;;;;;;;;5105307;27;43827;-58
2022/11/18 02:00:45;;;;;;;2.58;2.30;;;;;;;;;;5101357;27;43403;-58
2022/11/18 02:03:13;;;;;;;2.13;2.03;;;;;;;;;;5104053;27;43490;-58
2022/11/18 02:05:42;;;;;;;2.17;2.08;;;;;;;;;;5107287;27;43463;-58
2022/11/18 02:08:10;;;;;;;2.17;2.08;;;;;;;;;;5105293;27;44044;-58
2022/11/18 02:10:38;;;;;;;2.30;2.20;;;;;;;;;;5104037;27;43456;-59
2022/11/18 02:13:06;;;;;;;2.50;2.30;;;;;;;;;;5089541;27;43503;-58
2022/11/18 02:15:34;;;;;;;2.10;2.00;;;;;;;;;;5089653;27;43530;-58
2022/11/18 02:18:13;;;;;;;2.30;2.13;;;;;;;;;;5105411;27;44023;-58
2022/11/18 02:20:45;;;;;;;2.15;2.05;;;;;;;;;;5104598;27;44022;-58
2022/11/18 02:23:13;;;;;;;2.13;2.03;;;;;;;;;;5104226;27;43422;-58
2022/11/18 02:26:00;;;;;;;2.30;2.10;;;;;;;;;;5105001;27;43475;-58
2022/11/18 02:28:37;;;;;;;2.83;2.35;;;;;;;;;;5104044;27;44988;-58
2022/11/18 02:31:28;;;;;;;2.38;2.17;;;;;;;;;;5103352;27;43933;-58
2022/11/18 02:34:06;;;;;;;2.20;2.00;;;;;;;;;;5087142;27;43567;-58
2022/11/18 02:36:37;;;;;;;2.30;2.20;;;;;;;;;;5104436;27;43483;-58
2022/11/18 02:39:10;;;;;;;2.45;2.35;;;;;;;;;;5103100;27;44659;-58
2022/11/18 02:41:39;;;;;;;2.40;2.20;;;;;;;;;;5105555;27;43440;-58
2022/11/18 02:44:14;;;;;;;2.30;2.20;;;;;;;;;;5103236;27;43422;-58
2022/11/18 02:46:44;;;;;;;2.50;2.30;;;;;;;;;;5103906;27;43498;-58
2022/11/18 02:49:25;;;;;;;3.03;2.83;;;;;;;;;;5104349;27;44067;-58
2022/11/18 02:51:54;;;;;;;2.40;2.20;;;;;;;;;;5106452;27;43941;-58
2022/11/18 02:54:23;;;;;;;2.45;2.25;;;;;;;;;;5103603;27;44072;-58
2022/11/18 02:56:52;;;;;;;2.40;2.20;;;;;;;;;;5107345;27;43502;-58
2022/11/18 02:59:20;;;;;;;2.63;2.42;;;;;;;;;;5104258;27;43846;-59
2022/11/18 03:01:48;;;;;;;2.50;2.30;;;;;;;;;;5103498;27;43396;-58
2022/11/18 03:04:17;;;;;;;2.55;2.35;;;;;;;;;;5103023;27;43512;-58
2022/11/18 03:07:09;;;;;;;2.60;2.40;;;;;;;;;;5103108;27;43467;-58
2022/11/18 03:09:39;;;;;;;2.63;2.42;;;;;;;;;;5081360;27;44080;-58
2022/11/18 03:12:19;;;;;;;2.50;2.30;;;;;;;;;;5102589;27;43381;-58
2022/11/18 03:15:05;;;;;;;2.35;2.20;;;;;;;;;;5103415;27;43488;-59
2022/11/18 03:17:45;;;;;;;2.47;2.38;;;;;;;;;;5103944;27;43414;-58
2022/11/18 03:20:15;;;;;;;3.00;2.70;;;;;;;;;;5102581;27;43791;-58
2022/11/18 03:22:52;;;;;;;2.50;2.33;;;;;;;;;;5103215;27;43458;-59
2022/11/18 03:25:29;;;;;;;2.55;2.35;;;;;;;;;;5103262;27;43419;-58
2022/11/18 03:28:00;;;;;;;2.85;2.47;;;;;;;;;;5102776;27;43433;-58
2022/11/18 03:30:30;;;;;;;2.65;2.45;;;;;;;;;;5104040;27;45055;-58
2022/11/18 03:33:10;;;;;;;2.60;2.40;;;;;;;;;;5094632;27;43415;-59
2022/11/18 03:35:40;;;;;;;2.70;2.50;;;;;;;;;;5101705;27;43434;-58
2022/11/18 03:38:13;;;;;;;2.77;2.57;;;;;;;;;;5100495;27;43509;-58
2022/11/18 03:40:43;;;;;;;2.75;2.55;;;;;;;;;;5101717;27;43809;-59
2022/11/18 03:43:16;;;;;;;2.80;2.60;;;;;;;;;;5102744;27;43440;-59
2022/11/18 03:45:46;;;;;;;2.65;2.45;;;;;;;;;;5102722;27;43423;-58
2022/11/18 03:48:16;;;;;;;2.25;2.05;;;;;;;;;;5103104;27;43415;-58
2022/11/18 03:50:47;;;;;;;2.40;2.20;;;;;;;;;;5102824;27;44060;-58
2022/11/18 03:53:16;;;;;;;2.90;2.60;;;;;;;;;;5103133;27;43414;-58
2022/11/18 03:55:48;;;;;;;2.50;2.30;;;;;;;;;;5102127;27;43389;-58
2022/11/18 03:58:27;;;;;;;2.60;2.40;;;;;;;;;;5103666;27;43546;-58
2022/11/18 04:01:03;;;;;;;2.88;2.67;;;;;;;;;;5102545;27;44693;-58
2022/11/18 04:03:31;;;;;;;2.95;2.75;;;;;;;;;;5089025;27;43723;-58
2022/11/18 04:06:04;;;;;;;2.72;2.53;;;;;;;;;;5103267;27;43407;-58
2022/11/18 04:08:34;;;;;;;2.55;2.35;;;;;;;;;;5102950;27;43433;-58
2022/11/18 04:12:01;;;;;;;2.80;2.60;;;;;;;;;;5105163;27;44058;-58
2022/11/18 04:14:00;;;;;;;2.50;2.30;;;;;;;;;;5101741;27;43656;-58
2022/11/18 04:16:27;;;;;;;2.38;2.28;;;;;;;;;;5102236;27;43426;-58
2022/11/18 04:18:55;;;;;;;2.80;2.60;;;;;;;;;;5107024;27;43431;-58
2022/11/18 04:21:29;;;;;;;3.28;2.53;;;;;;;;;;5087787;27;43892;-58
2022/11/18 04:23:57;;;;;;;2.63;2.42;;;;;;;;;;5100296;27;43411;-58
2022/11/18 04:26:24;;;;;;;2.72;2.50;;;;;;;;;;5105984;27;43392;-58
2022/11/18 04:28:52;;;;;;;2.53;2.33;;;;;;;;;;5105633;27;43463;-58
2022/11/18 04:31:20;;;;;;;2.70;2.50;;;;;;;;;;5108880;27;43754;-58
2022/11/18 04:33:48;;;;;;;2.47;2.28;;;;;;;;;;5104672;27;43433;-58
2022/11/18 04:36:16;;;;;;;2.30;2.20;;;;;;;;;;5108832;27;43444;-58
2022/11/18 04:38:43;;;;;;;2.58;2.38;;;;;;;;;;5104202;27;43440;-58
2022/11/18 04:41:11;;;;;;;2.20;2.10;;;;;;;;;;5105878;27;44077;-58
2022/11/18 04:43:39;;;;;;;2.53;2.33;;;;;;;;;;5090810;27;43479;-58
2022/11/18 04:46:07;;;;;;;2.30;2.10;;;;;;;;;;5105161;27;43442;-58
2022/11/18 04:48:35;;;;;;;2.70;2.50;;;;;;;;;;5105928;27;43482;-58
2022/11/18 04:51:06;;;;;;;2.50;2.40;;;;;;;;;;5089653;27;43697;-59
2022/11/18 04:53:34;;;;;;;;;;;;;;;;;;5101167;27;43433;-58
2022/11/18 04:56:06;;;;;;;2.53;2.33;;;;;;;;;;5105307;27;44015;-58
2022/11/18 04:58:33;;;;;;;2.67;2.47;;;;;;;;;;5105244;27;43597;-58
2022/11/18 05:01:01;;;;;;;2.40;2.30;;;;;;;;;;5106196;27;43802;-59
2022/11/18 05:03:29;;;;;;;2.53;2.33;;;;;;;;;;5104419;27;43503;-58
2022/11/18 05:06:00;;;;;;;2.92;2.40;;;;;;;;;;5104521;27;43436;-58
2022/11/18 05:08:28;;;;;;;2.55;2.35;;;;;;;;;;5107049;27;43448;-58
2022/11/18 05:12:47;;;;;;;2.92;2.38;;;;;;;;;;5105975;27;43802;-58
2022/11/18 05:13:44;;;;;;;2.30;2.20;;;;;;;;;;5104497;27;43408;-58
2022/11/18 05:16:11;;;;;;;2.30;2.20;;;;;;;;;;5105059;27;43451;-58
2022/11/18 05:18:39;;;;;;;2.50;2.30;;;;;;;;;;5106104;27;43532;-58
2022/11/18 05:21:07;;;;;;;2.55;2.35;;;;;;;;;;5101580;27;44837;-59
2022/11/18 05:23:35;;;;;;;2.30;2.10;;;;;;;;;;5105437;27;43404;-58
2022/11/18 05:26:04;;;;;;;2.22;2.13;;;;;;;;;;5103746;27;43360;-58
2022/11/18 05:28:31;;;;;;;2.53;2.33;;;;;;;;;;5106484;27;43576;-58
2022/11/18 05:30:59;;;;;;;2.70;2.50;;;;;;;;;;5104802;27;43957;-58
2022/11/18 05:33:27;;;;;;;2.10;2.00;;;;;;;;;;5081110;27;43500;-58
2022/11/18 05:35:55;;;;;;;2.67;2.47;;;;;;;;;;5104482;27;43439;-58
2022/11/18 05:38:23;;;;;;;2.28;2.17;;;;;;;;;;5106272;27;43509;-58
2022/11/18 05:40:51;;;;;;;2.28;2.13;;;;;;;;;;5104356;27;43773;-58
2022/11/18 05:43:18;;;;;;;2.20;2.10;;;;;;;;;;5105382;27;43432;-58
2022/11/18 05:45:49;;;;;;;2.95;2.67;;;;;;;;;;5104073;27;43438;-59
2022/11/18 05:48:18;;;;;;;2.22;2.13;;;;;;;;;;5105188;27;43557;-58
2022/11/18 05:50:46;;;;;;;2.45;2.30;;;;;;;;;;5104949;27;44034;-59
2022/11/18 05:53:14;;;;;;;2.40;2.20;;;;;;;;;;5104649;27;43503;-58
2022/11/18 05:55:42;;;;;;;2.25;2.10;;;;;;;;;;5087531;27;43415;-58
2022/11/18 05:58:10;;;;;;;2.70;2.50;;;;;;;;;;5099960;27;43422;-59
2022/11/18 06:00:38;;;;;;;2.47;2.30;;;;;;;;;;5096515;27;43635;-59
2022/11/18 06:03:08;;;;;;;2.58;2.38;;;;;;;;;;5101067;27;43477;-59
2022/11/18 06:05:36;;;;;;;2.53;2.33;;;;;;;;;;5098542;27;43494;-58
2022/11/18 06:08:04;;;;;;;2.42;2.30;;;;;;;;;;5103296;27;43471;-58
2022/11/18 06:10:35;;;;;;;2.55;2.40;;;;;;;;;;5100570;27;44033;-58
2022/11/18 06:13:05;;;;;;;2.43;2.23;;;;;;;;;;5103930;27;43372;-58
2022/11/18 06:15:36;;;;;;;2.78;2.50;;;;;;;;;;5103282;27;43402;-58
2022/11/18 06:18:04;;;;;;;;;;;;;;;;;;5104068;27;43431;-59
2022/11/18 06:20:33;;;;;;;2.65;2.45;;;;;;;;;;5104862;27;44027;-58
2022/11/18 06:23:00;;;;;;;2.70;2.50;;;;;;;;;;5101439;27;43382;-58
2022/11/18 06:25:29;;;;;;;2.70;2.50;;;;;;;;;;5104920;27;43545;-58
2022/11/18 06:27:58;;;;;;;2.70;2.30;;;;;;;;;;5104042;27;43420;-58
2022/11/18 06:30:26;;;;;;;3.10;2.80;;;;;;;;;;5107563;27;44052;-58
2022/11/18 06:32:54;;;;;;;2.40;2.30;;;;;;;;;;5099662;27;43482;-58
2022/11/18 06:35:22;;;;;;;2.90;2.60;;;;;;;;;;5088547;27;43379;-59
2022/11/18 06:37:50;;;;;;;2.38;2.28;;;;;;;;;;5108334;27;43435;-58
2022/11/18 06:40:18;;;;;;;3.10;2.75;;;;;;;;;;5082352;27;46263;-58
2022/11/18 06:45:32;;;;;;;2.83;2.50;;;;;;;;;;5102490;27;43429;-59
2022/11/18 06:48:00;;;;;;;2.78;2.58;;;;;;;;;;5102534;27;43433;-58
2022/11/18 06:50:28;;;;;;;2.40;2.30;;;;;;;;;;5103543;27;43785;-58
2022/11/18 06:52:59;;;;;;;3.30;2.60;;;;;;;;;;5100079;27;43416;-58
2022/11/18 06:55:27;;;;;;;2.95;2.63;;;;;;;;;;5103610;27;43449;-58
2022/11/18 06:57:57;;;;;;;3.30;2.97;;;;;;;;;;5098917;27;43508;-58
2022/11/18 07:00:25;;;;;;;2.85;2.65;;;;;;;;;;5102101;27;44031;-58
2022/11/18 07:02:53;;;;;;;3.15;2.80;;;;;;;;;;5102744;27;43410;-58
2022/11/18 07:05:21;;;;;;;3.22;2.92;;;;;;;;;;5097991;27;43503;-59
2022/11/18 07:07:49;;;;;;;3.08;2.80;;;;;;;;;;5103634;27;43427;-57
2022/11/18 07:10:17;;;;;;;3.25;2.92;;;;;;;;;;5102002;27;43796;-58
2022/11/18 07:12:44;;;;;;;3.20;2.90;;;;;;;;;;5103941;27;43538;-58
2022/11/18 07:15:12;;;;;;;3.00;2.70;;;;;;;;;;5102459;27;43512;-58
2022/11/18 07:17:40;;;;;;;2.70;2.50;;;;;;;;;;5097629;27;43608;-58
2022/11/18 07:20:08;;;;;;;3.50;3.20;;;;;;;;;;5102650;27;43800;-58
2022/11/18 07:22:36;;;;;;;3.53;3.22;;;;;;;;;;5104122;27;43392;-58
2022/11/18 07:25:04;;;;;;;2.85;2.65;;;;;;;;;;5093822;27;43486;-58
2022/11/18 07:27:32;;;;;;;3.13;2.80;;;;;;;;;;5103237;27;43501;-58
2022/11/18 07:30:00;;;;;;;3.22;2.92;;;;;;;;;;5099945;27;44018;-58
2022/11/18 07:32:28;;;;;;;2.90;2.67;;;;;;;;;;5105328;27;43430;-58
2022/11/18 07:34:56;;;;;;;3.25;2.95;;;;;;;;;;5083821;27;43428;-58
2022/11/18 07:37:23;;;;;;;2.80;2.60;;;;;;;;;;5108050;27;43592;-58
2022/11/18 07:39:51;;;;;;;3.22;2.83;;;;;;;;;;5100854;27;44066;-59
2022/11/18 07:42:19;;;;;;;4.18;2.75;;;;;;;;;;5088257;27;43613;-58
2022/11/18 07:44:47;;;;;;;2.80;2.60;;;;;;;;;;5104702;27;43500;-58
2022/11/18 07:47:15;;;;;;;2.67;2.47;;;;;;;;;;5101878;27;43601;-58
2022/11/18 07:49:43;;;;;;;3.15;2.83;;;;;;;;;;5100567;27;43847;-58
2022/11/18 07:52:10;;;;;;;3.20;2.90;;;;;;;;;;5102988;27;43576;-59
2022/11/18 07:54:38;;;;;;;3.17;2.88;;;;;;;;;;5101331;27;43449;-58
2022/11/18 07:57:06;;;;;;;3.17;2.63;;;;;;;;;;5102408;27;43468;-58
2022/11/18 07:59:34;;;;;;;3.92;3.05;;;;;;;;;;5099246;27;44049;-58
2022/11/18 08:02:02;;;;;;;2.85;2.63;;;;;;;;;;5106274;27;44154;-58
2022/11/18 08:04:30;;;;;;;3.22;2.92;;;;;;;;;;5106947;27;43531;-58
2022/11/18 08:06:58;;;;;;;2.88;2.67;;;;;;;;;;5105001;27;43408;-58
2022/11/18 08:09:26;;;;;;;3.33;2.75;;;;;;;;;;5104501;27;43788;-58
2022/11/18 08:11:54;;;;;;;3.22;2.92;;;;;;;;;;5102826;27;43419;-58
2022/11/18 08:14:23;;;;;;;3.92;3.05;;;;;;;;;;5105763;27;43515;-58
2022/11/18 08:16:50;;;;;;;3.42;2.85;;;;;;;;;;5105647;27;43569;-58
2022/11/18 08:19:18;;;;;;;3.15;2.95;;;;;;;;;;5104861;27;44311;-58
2022/11/18 08:21:47;;;;;;;3.17;2.83;;;;;;;;;;5107006;27;43999;-58
2022/11/18 08:24:14;;;;;;;3.22;2.83;;;;;;;;;;5105034;27;43438;-58
2022/11/18 08:26:42;;;;;;;3.25;2.95;;;;;;;;;;5105855;27;43531;-58
2022/11/18 08:29:10;;;;;;;3.85;3.15;;;;;;;;;;5089977;27;44795;-58
2022/11/18 08:31:38;;;;;;;3.20;2.95;;;;;;;;;;5090833;27;44780;-59
2022/11/18 08:34:06;;;;;;;3.80;3.08;;;;;;;;;;5104771;27;43381;-58
2022/11/18 08:36:35;;;;;;;3.10;2.80;;;;;;;;;;5105922;27;43437;-59
2022/11/18 08:39:05;;;;;;;3.00;2.80;;;;;;;;;;5102210;27;44068;-59
2022/11/18 08:41:43;;;;;;;3.42;3.13;;;;;;;;;;5106977;27;43513;-59
2022/11/18 08:44:12;;;;;;;3.30;2.90;;;;;;;;;;5099910;27;43489;-56
2022/11/18 08:46:40;;;;;;;3.17;2.88;;;;;;;;;;5090959;27;43664;-59
2022/11/18 08:49:08;;;;;;;3.42;3.13;;;;;;;;;;5106545;27;44027;-58
2022/11/18 08:51:36;;;;;;;3.60;2.97;;;;;;;;;;5104196;27;43685;-59
2022/11/18 08:54:05;;;;;;;3.60;3.30;;;;;;;;;;5104482;27;43569;-59
2022/11/18 08:56:33;;;;;;;10.68;3.75;;;;;;;;;;5105282;27;43521;-61
2022/11/18 08:59:01;;;;;;;4.35;3.25;;;;;;;;;;5100373;27;43855;-59
2022/11/18 09:01:29;;;;;;;3.22;2.92;;;;;;;;;;5089072;27;43335;-59
2022/11/18 09:03:57;;;;;;;3.35;3.05;;;;;;;;;;5089485;27;43424;-59
2022/11/18 09:06:25;;;;;;;3.65;3.30;;;;;;;;;;5104410;27;43540;-60
2022/11/18 09:08:53;;;;;;;5.57;3.00;;;;;;;;;;5105761;27;44086;-59
2022/11/18 09:11:22;;;;;;;3.47;3.05;;;;;;;;;;5103878;27;43990;-59
2022/11/18 09:13:54;;;;;;;3.40;3.10;;;;;;;;;;5102183;27;43480;-59
2022/11/18 09:16:42;;;;;;;3.20;2.95;;;;;;;;;;5105885;27;43517;-59
2022/11/18 09:19:10;;;;;;;3.20;2.90;;;;;;;;;;5103326;27;45023;-59
2022/11/18 09:21:58;;;;;;;4.05;3.42;;;;;;;;;;5104524;27;43497;-58
2022/11/18 09:24:26;;;;;;;3.25;2.80;;;;;;;;;;5105137;27;43492;-59
2022/11/18 09:26:54;;;;;;;3.65;2.90;;;;;;;;;;5104865;27;43468;-59
2022/11/18 09:29:24;;;;;;;3.17;2.88;;;;;;;;;;5104790;27;43780;-59
2022/11/18 09:31:53;;;;;;;3.72;3.15;;;;;;;;;;5089190;27;43454;-62
2022/11/18 09:34:22;;;;;;;3.72;3.15;;;;;;;;;;5102703;27;43588;-59
2022/11/18 09:36:54;;;;;;;4.18;3.33;;;;;;;;;;5104384;27;43462;-59
2022/11/18 09:39:25;;;;;;;4.60;3.35;;;;;;;;;;5103005;27;44292;-59
2022/11/18 09:41:53;;;;;;;5.60;3.20;;;;;;;;;;5103616;27;43441;-59
2022/11/18 09:44:40;;;;;;;3.72;3.35;;;;;;;;;;5102781;27;43519;-59
2022/11/18 09:47:27;;;;;;;6.05;3.30;;;;;;;;;;5102301;27;43561;-60
2022/11/18 09:49:56;;;;;;;3.78;3.10;;;;;;;;;;5082274;27;43934;-59
2022/11/18 09:52:29;;;;;;;3.60;3.30;;;;;;;;;;5106921;27;43955;-60
2022/11/18 09:55:21;;;;;;;5.03;3.42;;;;;;;;;;5106286;27;43512;-60
2022/11/18 09:57:50;;;;;;;3.67;3.10;;;;;;;;;;5103494;27;43369;-60
2022/11/18 10:00:23;;;;;;;4.07;2.92;;;;;;;;;;5106952;27;43827;-59
2022/11/18 10:03:00;;;;;;;4.00;3.30;;;;;;;;;;5103585;27;43397;-60
2022/11/18 10:05:28;;;;;;;4.32;3.03;;;;;;;;;;5105288;27;43524;-60
2022/11/18 10:07:56;;;;;;;3.47;3.03;;;;;;;;;;5104931;27;43415;-60
2022/11/18 10:10:44;;;;;;;3.67;3.33;;;;;;;;;;5108759;27;43934;-60
2022/11/18 10:13:32;;;;;;;3.50;3.10;;;;;;;;;;5110303;27;43414;-60
2022/11/18 10:16:19;;;;;;;4.18;3.15;;;;;;;;;;5105473;27;43486;-60
2022/11/18 10:18:57;;;;;;;3.90;3.35;;;;;;;;;;5100733;27;43474;-60
2022/11/18 10:21:50;;;;;;;3.60;3.28;;;;;;;;;;5105005;27;44357;-61
2022/11/18 10:24:23;;;;;;;4.38;3.17;;;;;;;;;;5107069;27;43489;-62
2022/11/18 10:26:54;;;;;;;3.33;3.03;;;;;;;;;;5109030;27;43438;-62
2022/11/18 10:29:22;;;;;;;3.65;3.28;;;;;;;;;;5109282;27;43429;-61
2022/11/18 10:32:12;;;;;;;3.60;3.20;;;;;;;;;;5100352;27;44161;-61
2022/11/18 10:34:50;;;;;;;3.85;3.38;;;;;;;;;;5110267;27;43302;-61
2022/11/18 10:37:22;;;;;;;3.40;3.00;;;;;;;;;;5102476;27;43422;-62
2022/11/18 10:40:22;;;;;;;3.45;3.15;;;;;;;;;;5104348;27;43437;-62
2022/11/18 10:42:50;;;;;;;3.50;3.20;;;;;;;;;;5099602;27;44044;-63
2022/11/18 10:45:21;;;;;;;3.38;3.08;;;;;;;;;;5109163;27;43986;-63
2022/11/18 10:47:49;;;;;;;;;;;;;;;;;;5103284;27;43494;-62
2022/11/18 10:50:46;;;;;;;3.25;3.00;;;;;;;;;;5102763;27;43502;-63
2022/11/18 10:53:30;;;;;;;3.28;2.97;;;;;;;;;;5090005;27;43982;-63
2022/11/18 10:55:59;;;;;;;3.10;2.80;;;;;;;;;;5110639;27;43979;-63
2022/11/18 10:58:29;;;;;;;3.42;3.13;;;;;;;;;;5106311;27;43492;-62
2022/11/18 11:01:08;;;;;;;3.60;2.77;;;;;;;;;;5104538;27;44092;-62
2022/11/18 11:03:38;;;;;;;4.40;3.22;;;;;;;;;;5099853;27;44035;-62
2022/11/18 11:06:19;;;;;;;3.67;3.30;;;;;;;;;;5109160;27;44053;-62
2022/11/18 11:08:52;;;;;;;3.83;3.20;;;;;;;;;;5102281;27;43479;-62
2022/11/18 11:11:25;;;;;;;3.50;3.22;;;;;;;;;;5101286;27;43435;-61
2022/11/18 11:14:14;;;;;;;3.65;2.97;;;;;;;;;;5081853;27;45323;-61
2022/11/18 11:16:46;;;;;;;3.45;3.15;;;;;;;;;;5100274;27;43387;-61
2022/11/18 11:19:18;;;;;;;4.05;3.60;;;;;;;;;;5064180;27;44227;-62
2022/11/18 11:21:46;;;;;;;4.03;3.40;;;;;;;;;;5103235;27;44046;-61
2022/11/18 11:24:15;;;;;;;3.58;3.28;;;;;;;;;;5104712;27;44302;-61
2022/11/18 11:26:51;;;;;;;4.03;3.33;;;;;;;;;;5083326;27;43514;-62
2022/11/18 11:29:39;;;;;;;3.92;3.53;;;;;;;;;;5107989;27;43427;-63
2022/11/18 11:32:15;;;;;;;4.00;3.60;;;;;;;;;;5090960;27;43502;-62
2022/11/18 11:34:52;;;;;;;3.85;3.55;;;;;;;;;;5107011;27;43794;-62
2022/11/18 11:37:23;;;;;;;4.07;3.50;;;;;;;;;;5111328;27;43434;-62
2022/11/18 11:39:54;;;;;;;3.70;3.40;;;;;;;;;;5091195;27;43396;-61
2022/11/18 11:42:21;;;;;;;;;;;;;;;;;;5102550;27;43489;-62
2022/11/18 11:45:02;;;;;;;4.70;3.83;;;;;;;;;;5105104;27;45065;-62
2022/11/18 11:47:46;;;;;;;4.68;3.83;;;;;;;;;;5111214;27;43436;-61
2022/11/18 11:50:16;;;;;;;4.18;3.78;;;;;;;;;;5107150;27;43462;-61
2022/11/18 11:52:49;;;;;;;4.45;3.80;;;;;;;;;;5107773;27;43501;-62
2022/11/18 11:55:36;;;;;;;4.25;3.78;;;;;;;;;;5110151;27;43911;-62
2022/11/18 11:58:14;;;;;;;5.03;4.10;;;;;;;;;;5101460;27;43453;-62
2022/11/18 12:00:46;;;;;;;4.30;3.90;;;;;;;;;;5100088;27;44017;-62
2022/11/18 12:03:36;;;;;;;3.65;3.28;;;;;;;;;;5106359;27;43521;-61
2022/11/18 12:06:04;;;;;;;4.20;3.90;;;;;;;;;;5103068;27;43787;-61
2022/11/18 12:08:32;;;;;;;4.80;4.32;;;;;;;;;;5115512;27;43435;-61
2022/11/18 12:11:10;;;;;;;4.85;4.45;;;;;;;;;;5108914;27;43426;-60
2022/11/18 12:13:59;;;;;;;4.43;4.07;;;;;;;;;;5108896;27;43479;-60
2022/11/18 12:16:27;;;;;;;5.13;4.60;;;;;;;;;;5106290;27;43994;-60
2022/11/18 12:19:07;;;;;;;4.90;4.40;;;;;;;;;;5110327;27;43737;-60
2022/11/18 12:21:44;;;;;;;4.60;4.20;;;;;;;;;;5090629;27;43609;-60
2022/11/18 12:24:29;;;;;;;4.43;4.03;;;;;;;;;;5107334;27;43467;-61
2022/11/18 12:27:06;;;;;;;4.40;4.03;;;;;;;;;;5107059;27;43909;-61
2022/11/18 12:29:36;;;;;;;4.75;4.32;;;;;;;;;;5107709;27;43494;-60
2022/11/18 12:32:14;;;;;;;5.15;4.63;;;;;;;;;;5105162;27;43384;-60
2022/11/18 12:34:43;;;;;;;4.55;4.15;;;;;;;;;;5093940;27;43564;-61
2022/11/18 12:37:34;;;;;;;4.80;4.40;;;;;;;;;;5109501;27;43805;-61
2022/11/18 12:40:02;;;;;;;4.75;4.35;;;;;;;;;;5090625;27;43760;-61
2022/11/18 12:45:20;;;;;;;;;;;;;;;;;;5108524;27;43414;-60
2022/11/18 12:47:48;;;;;;;4.63;4.20;;;;;;;;;;5111487;27;44020;-61
2022/11/18 12:50:16;;;;;;;5.30;4.80;;;;;;;;;;5106581;27;43520;-61
2022/11/18 12:52:45;;;;;;;4.95;4.55;;;;;;;;;;5109304;27;43481;-61
2022/11/18 12:55:16;;;;;;;5.07;4.60;;;;;;;;;;5108245;27;44115;-61
2022/11/18 12:57:43;;;;;;;5.10;4.70;;;;;;;;;;5107910;27;43784;-61
2022/11/18 13:00:23;;;;;;;5.20;4.80;;;;;;;;;;5101888;27;43452;-60
2022/11/18 13:02:52;;;;;;;4.85;4.45;;;;;;;;;;5111740;27;43496;-61
2022/11/18 13:05:20;;;;;;;5.45;4.95;;;;;;;;;;5110276;27;43490;-61
2022/11/18 13:08:13;;;;;;;5.35;4.85;;;;;;;;;;5100921;27;44807;-61
2022/11/18 13:13:46;;;;;;;5.10;4.63;;;;;;;;;;5104367;27;43497;-60
2022/11/18 13:19:07;;;;;;;5.13;4.72;;;;;;;;;;5104952;27;44854;-60
2022/11/18 13:24:44;;;;;;;5.60;5.10;;;;;;;;;;5108636;27;43409;-61
2022/11/18 13:27:25;;;;;;;5.50;5.00;;;;;;;;;;5099616;27;43429;-61
2022/11/18 13:30:02;;;;;;;5.50;5.00;;;;;;;;;;5088843;27;44029;-61
2022/11/18 13:32:36;;;;;;;6.82;5.65;;;;;;;;;;5100094;27;43499;-61
2022/11/18 13:35:16;;;;;;;5.45;5.03;;;;;;;;;;5111007;27;43501;-61
2022/11/18 13:38:00;;;;;;;6.13;5.53;;;;;;;;;;5109104;27;44004;-61
2022/11/18 13:41:02;;;;;;;6.05;5.45;;;;;;;;;;5088628;27;44039;-60
2022/11/18 13:43:28;;;;;;;5.72;5.22;;;;;;;;;;5082286;27;43458;-60
2022/11/18 13:46:01;;;;;;;5.22;4.82;;;;;;;;;;5109566;27;43441;-61
2022/11/18 13:48:35;;;;;;;5.25;4.85;;;;;;;;;;5088822;27;43621;-61
2022/11/18 13:51:09;;;;;;;5.68;5.18;;;;;;;;;;5106190;27;44038;-61
2022/11/18 13:53:42;;;;;;;5.28;4.88;;;;;;;;;;5107106;27;43530;-61
2022/11/18 13:56:21;;;;;;;5.15;4.75;;;;;;;;;;5114349;27;43664;-61
2022/11/18 13:58:55;;;;;;;5.68;5.18;;;;;;;;;;5107809;27;43577;-61
2022/11/18 14:01:54;;;;;;;5.30;4.90;;;;;;;;;;5106433;27;44088;-61
2022/11/18 14:04:26;;;;;;;5.40;4.95;;;;;;;;;;5107261;27;43500;-61
2022/11/18 14:07:14;;;;;;;5.45;5.00;;;;;;;;;;5109835;27;43492;-60
2022/11/18 14:10:12;;;;;;;6.05;5.45;;;;;;;;;;5106603;27;43443;-59
2022/11/18 14:12:44;;;;;;;5.68;5.20;;;;;;;;;;5106033;27;45508;-59
2022/11/18 14:15:19;;;;;;;5.50;5.10;;;;;;;;;;5103164;27;44143;-58
2022/11/18 14:17:52;;;;;;;5.72;5.30;;;;;;;;;;5104514;27;43401;-59
2022/11/18 14:20:20;;;;;;;5.40;4.90;;;;;;;;;;5104038;27;43505;-59
2022/11/18 14:22:52;;;;;;;5.63;5.15;;;;;;;;;;5104047;27;44668;-59
2022/11/18 14:25:29;;;;;;;5.50;5.00;;;;;;;;;;5103628;27;43474;-59
2022/11/18 14:28:09;;;;;;;5.63;5.13;;;;;;;;;;5101742;27;43379;-59
2022/11/18 14:30:41;;;;;;;5.57;4.90;;;;;;;;;;5104444;27;43555;-59
2022/11/18 14:33:09;;;;;;;5.45;5.05;;;;;;;;;;5087080;27;43809;-59
2022/11/18 14:35:38;;;;;;;5.10;4.70;;;;;;;;;;5103558;27;43728;-59
2022/11/18 14:38:12;;;;;;;4.88;4.47;;;;;;;;;;5103549;27;43336;-59
2022/11/18 14:41:02;;;;;;;5.25;4.85;;;;;;;;;;5099968;27;43550;-59
2022/11/18 14:43:30;;;;;;;5.22;4.72;;;;;;;;;;5101443;27;43780;-59
2022/11/18 14:45:59;;;;;;;5.85;5.35;;;;;;;;;;5085022;27;43490;-59
2022/11/18 14:48:28;;;;;;;5.45;4.95;;;;;;;;;;5090060;27;43419;-59
2022/11/18 14:50:59;;;;;;;5.60;5.10;;;;;;;;;;5108674;27;43415;-59
2022/11/18 14:53:27;;;;;;;5.75;5.15;;;;;;;;;;5107414;27;43840;-59
2022/11/18 14:55:56;;;;;;;5.78;4.75;;;;;;;;;;5107535;27;43503;-59
2022/11/18 14:58:24;;;;;;;5.63;5.13;;;;;;;;;;5108617;27;43455;-59
2022/11/18 15:00:52;;;;;;;5.40;5.00;;;;;;;;;;5105755;27;43569;-59
2022/11/18 15:03:20;;;;;;;4.88;4.47;;;;;;;;;;5075135;27;44404;-58
2022/11/18 15:05:48;;;;;;;6.00;5.07;;;;;;;;;;5109344;27;43513;-59
2022/11/18 15:08:16;;;;;;;5.28;4.82;;;;;;;;;;5102347;27;43405;-59
2022/11/18 15:10:44;;;;;;;5.15;4.65;;;;;;;;;;5103635;27;43432;-58
2022/11/18 15:13:12;;;;;;;5.13;4.72;;;;;;;;;;5088619;27;43940;-58
2022/11/18 15:15:40;;;;;;;5.30;4.90;;;;;;;;;;5107092;27;43404;-58
2022/11/18 15:18:08;;;;;;;5.40;4.90;;;;;;;;;;5092851;27;44065;-58
2022/11/18 15:20:36;;;;;;;5.38;4.88;;;;;;;;;;5107425;27;43623;-58
2022/11/18 15:23:04;;;;;;;4.72;4.32;;;;;;;;;;5088141;27;44974;-50
2022/11/18 15:25:32;;;;;;;5.85;4.93;;;;;;;;;;5107887;27;43388;-58
2022/11/18 15:28:00;;;;;;;5.03;4.53;;;;;;;;;;5106557;27;43494;-58
2022/11/18 15:30:28;;;;;;;5.35;4.85;;;;;;;;;;5102732;27;43604;-58